sensor_id;sensor_type;location;lat;lon;timestamp;pressure;altitude;pressure_sealevel;temperature;humidity
80644;BME280;70010;60.224;24.712;2023-05-14T00:01:28;102345.51;;;10.28;40.53
80644;BME280;70010;60.224;24.712;2023-05-14T00:03:54;102345.35;;;10.20;41.00
80644;BME280;70010;60.224;24.712;2023-05-14T00:06:19;102342.71;;;9.98;41.61
80644;BME280;70010;60.224;24.712;2023-05-14T00:08:45;102342.83;;;9.90;41.40
80644;BME280;70010;60.224;24.712;2023-05-14T00:11:09;102342.69;;;10.25;40.79
80644;BME280;70010;60.224;24.712;2023-05-14T00:13:35;102344.02;;;10.32;40.75
80644;BME280;70010;60.224;24.712;2023-05-14T00:16:01;102336.57;;;10.62;39.66
80644;BME280;70010;60.224;24.712;2023-05-14T00:18:26;102339.92;;;10.57;40.18
80644;BME280;70010;60.224;24.712;2023-05-14T00:20:51;102340.02;;;9.90;40.68
80644;BME280;70010;60.224;24.712;2023-05-14T00:23:16;102344.60;;;9.96;40.98
80644;BME280;70010;60.224;24.712;2023-05-14T00:25:41;102345.16;;;9.85;41.68
80644;BME280;70010;60.224;24.712;2023-05-14T00:28:07;102348.38;;;9.53;42.46
80644;BME280;70010;60.224;24.712;2023-05-14T00:30:32;102348.04;;;9.85;41.98
80644;BME280;70010;60.224;24.712;2023-05-14T00:32:57;102347.44;;;10.06;41.49
80644;BME280;70010;60.224;24.712;2023-05-14T00:35:22;102345.26;;;10.64;39.84
80644;BME280;70010;60.224;24.712;2023-05-14T00:37:47;102348.94;;;10.44;40.24
80644;BME280;70010;60.224;24.712;2023-05-14T00:40:12;102351.73;;;10.18;40.36
80644;BME280;70010;60.224;24.712;2023-05-14T00:42:38;102353.74;;;9.92;41.09
80644;BME280;70010;60.224;24.712;2023-05-14T00:45:03;102351.24;;;10.07;40.10
80644;BME280;70010;60.224;24.712;2023-05-14T00:47:28;102349.03;;;10.01;40.56
80644;BME280;70010;60.224;24.712;2023-05-14T00:49:53;102349.43;;;9.85;41.54
80644;BME280;70010;60.224;24.712;2023-05-14T00:52:19;102347.07;;;9.22;43.22
80644;BME280;70010;60.224;24.712;2023-05-14T00:54:45;102348.50;;;9.26;43.78
80644;BME280;70010;60.224;24.712;2023-05-14T00:57:10;102349.62;;;9.03;44.27
80644;BME280;70010;60.224;24.712;2023-05-14T00:59:36;102348.04;;;9.30;44.04
80644;BME280;70010;60.224;24.712;2023-05-14T01:02:01;102347.75;;;9.36;42.97
80644;BME280;70010;60.224;24.712;2023-05-14T01:04:26;102349.59;;;9.16;43.76
80644;BME280;70010;60.224;24.712;2023-05-14T01:07:00;102350.94;;;9.13;43.76
80644;BME280;70010;60.224;24.712;2023-05-14T01:09:21;102352.61;;;9.51;43.19
80644;BME280;70010;60.224;24.712;2023-05-14T01:11:51;102352.51;;;8.79;44.66
80644;BME280;70010;60.224;24.712;2023-05-14T01:14:13;102349.47;;;9.48;43.53
80644;BME280;70010;60.224;24.712;2023-05-14T01:16:36;102348.34;;;9.34;43.10
80644;BME280;70010;60.224;24.712;2023-05-14T01:18:59;102344.50;;;10.44;40.27
80644;BME280;70010;60.224;24.712;2023-05-14T01:21:32;102345.33;;;10.22;40.42
80644;BME280;70010;60.224;24.712;2023-05-14T01:23:49;102347.13;;;9.79;41.66
80644;BME280;70010;60.224;24.712;2023-05-14T01:26:15;102343.62;;;9.30;42.77
80644;BME280;70010;60.224;24.712;2023-05-14T01:28:41;102347.66;;;8.97;42.65
80644;BME280;70010;60.224;24.712;2023-05-14T01:31:09;102341.25;;;9.20;43.33
80644;BME280;70010;60.224;24.712;2023-05-14T01:33:33;102341.68;;;9.08;43.69
80644;BME280;70010;60.224;24.712;2023-05-14T01:35:56;102340.48;;;9.10;43.69
80644;BME280;70010;60.224;24.712;2023-05-14T01:38:22;102337.98;;;9.08;43.48
80644;BME280;70010;60.224;24.712;2023-05-14T01:40:48;102339.96;;;9.42;42.86
80644;BME280;70010;60.224;24.712;2023-05-14T01:43:12;102336.74;;;9.34;42.56
80644;BME280;70010;60.224;24.712;2023-05-14T01:45:37;102337.76;;;9.31;42.16
80644;BME280;70010;60.224;24.712;2023-05-14T01:48:03;102338.10;;;9.70;41.00
80644;BME280;70010;60.224;24.712;2023-05-14T01:50:28;102332.80;;;10.78;39.61
80644;BME280;70010;60.224;24.712;2023-05-14T01:52:53;102340.81;;;10.21;40.30
80644;BME280;70010;60.224;24.712;2023-05-14T01:55:18;102339.70;;;9.84;40.18
80644;BME280;70010;60.224;24.712;2023-05-14T01:57:44;102340.72;;;9.20;43.51
80644;BME280;70010;60.224;24.712;2023-05-14T02:00:10;102343.96;;;8.32;45.05
80644;BME280;70010;60.224;24.712;2023-05-14T02:02:34;102345.74;;;8.84;44.41
80644;BME280;70010;60.224;24.712;2023-05-14T02:04:59;102344.31;;;8.37;45.44
80644;BME280;70010;60.224;24.712;2023-05-14T02:07:25;102346.19;;;9.18;43.45
80644;BME280;70010;60.224;24.712;2023-05-14T02:09:50;102338.74;;;11.66;38.34
80644;BME280;70010;60.224;24.712;2023-05-14T02:12:16;102341.20;;;12.56;36.13
80644;BME280;70010;60.224;24.712;2023-05-14T02:14:41;102343.15;;;12.36;36.00
80644;BME280;70010;60.224;24.712;2023-05-14T02:17:06;102351.25;;;10.47;39.26
80644;BME280;70010;60.224;24.712;2023-05-14T02:19:31;102350.82;;;10.19;39.64
80644;BME280;70010;60.224;24.712;2023-05-14T02:21:58;102349.94;;;10.27;39.56
80644;BME280;70010;60.224;24.712;2023-05-14T02:24:22;102348.24;;;10.75;38.45
80644;BME280;70010;60.224;24.712;2023-05-14T02:26:47;102357.13;;;9.98;40.68
80644;BME280;70010;60.224;24.712;2023-05-14T02:29:12;102361.64;;;9.51;42.36
80644;BME280;70010;60.224;24.712;2023-05-14T02:31:38;102365.51;;;9.33;42.79
80644;BME280;70010;60.224;24.712;2023-05-14T02:34:04;102363.97;;;8.98;43.47
80644;BME280;70010;60.224;24.712;2023-05-14T02:36:28;102364.95;;;8.92;43.76
80644;BME280;70010;60.224;24.712;2023-05-14T02:38:53;102365.74;;;9.57;42.77
80644;BME280;70010;60.224;24.712;2023-05-14T02:41:19;102365.76;;;10.17;41.78
80644;BME280;70010;60.224;24.712;2023-05-14T02:43:44;102366.24;;;9.62;41.86
80644;BME280;70010;60.224;24.712;2023-05-14T02:46:09;102367.33;;;9.99;41.43
80644;BME280;70010;60.224;24.712;2023-05-14T02:48:35;102363.28;;;9.59;42.10
80644;BME280;70010;60.224;24.712;2023-05-14T02:51:01;102361.50;;;9.22;43.10
80644;BME280;70010;60.224;24.712;2023-05-14T02:53:26;102360.00;;;9.05;43.57
80644;BME280;70010;60.224;24.712;2023-05-14T02:55:51;102364.62;;;8.89;44.66
80644;BME280;70010;60.224;24.712;2023-05-14T02:58:16;102365.86;;;9.21;43.23
80644;BME280;70010;60.224;24.712;2023-05-14T03:00:41;102366.74;;;9.35;43.93
80644;BME280;70010;60.224;24.712;2023-05-14T03:03:07;102368.84;;;9.17;43.53
80644;BME280;70010;60.224;24.712;2023-05-14T03:05:32;102369.44;;;9.51;42.27
80644;BME280;70010;60.224;24.712;2023-05-14T03:07:59;102372.68;;;10.02;41.26
80644;BME280;70010;60.224;24.712;2023-05-14T03:10:23;102369.06;;;11.51;38.23
80644;BME280;70010;60.224;24.712;2023-05-14T03:12:48;102373.19;;;12.72;35.52
80644;BME280;70010;60.224;24.712;2023-05-14T03:15:14;102374.69;;;10.86;38.04
80644;BME280;70010;60.224;24.712;2023-05-14T03:17:39;102376.74;;;12.30;36.16
80644;BME280;70010;60.224;24.712;2023-05-14T03:20:06;102374.93;;;11.19;37.30
80644;BME280;70010;60.224;24.712;2023-05-14T03:22:30;102367.77;;;13.29;34.20
80644;BME280;70010;60.224;24.712;2023-05-14T03:24:56;102369.31;;;14.29;32.43
80644;BME280;70010;60.224;24.712;2023-05-14T03:27:21;102369.37;;;14.92;31.62
80644;BME280;70010;60.224;24.712;2023-05-14T03:29:46;102365.42;;;14.99;31.45
80644;BME280;70010;60.224;24.712;2023-05-14T03:32:12;102366.11;;;14.16;32.06
80644;BME280;70010;60.224;24.712;2023-05-14T03:34:37;102363.51;;;14.29;32.15
80644;BME280;70010;60.224;24.712;2023-05-14T03:37:03;102364.62;;;13.88;33.01
80644;BME280;70010;60.224;24.712;2023-05-14T03:39:28;102367.54;;;12.30;35.77
80644;BME280;70010;60.224;24.712;2023-05-14T03:41:53;102365.10;;;13.40;34.29
80644;BME280;70010;60.224;24.712;2023-05-14T03:44:19;102366.20;;;12.55;34.37
80644;BME280;70010;60.224;24.712;2023-05-14T03:46:45;102371.33;;;10.93;38.00
80644;BME280;70010;60.224;24.712;2023-05-14T03:49:10;102368.35;;;14.04;33.15
80644;BME280;70010;60.224;24.712;2023-05-14T03:51:35;102369.51;;;13.00;33.99
80644;BME280;70010;60.224;24.712;2023-05-14T03:54:01;102375.68;;;12.19;35.54
80644;BME280;70010;60.224;24.712;2023-05-14T03:56:26;102374.51;;;12.76;34.94
80644;BME280;70010;60.224;24.712;2023-05-14T03:58:51;102372.98;;;13.43;34.01
80644;BME280;70010;60.224;24.712;2023-05-14T04:01:16;102378.38;;;14.59;32.39
80644;BME280;70010;60.224;24.712;2023-05-14T04:03:41;102373.31;;;15.14;31.52
80644;BME280;70010;60.224;24.712;2023-05-14T04:06:06;102383.12;;;14.78;32.39
80644;BME280;70010;60.224;24.712;2023-05-14T04:08:32;102383.13;;;14.13;33.08
80644;BME280;70010;60.224;24.712;2023-05-14T04:10:58;102379.24;;;13.42;34.28
80644;BME280;70010;60.224;24.712;2023-05-14T04:13:23;102374.89;;;13.74;34.75
80644;BME280;70010;60.224;24.712;2023-05-14T04:15:48;102377.51;;;13.27;35.32
80644;BME280;70010;60.224;24.712;2023-05-14T04:18:13;102372.45;;;13.48;34.64
80644;BME280;70010;60.224;24.712;2023-05-14T04:20:39;102377.27;;;13.83;34.26
80644;BME280;70010;60.224;24.712;2023-05-14T04:23:04;102378.44;;;12.68;36.11
80644;BME280;70010;60.224;24.712;2023-05-14T04:25:29;102383.04;;;10.96;39.25
80644;BME280;70010;60.224;24.712;2023-05-14T04:27:54;102386.45;;;11.51;38.88
80644;BME280;70010;60.224;24.712;2023-05-14T04:30:20;102387.15;;;12.57;36.07
80644;BME280;70010;60.224;24.712;2023-05-14T04:32:44;102380.48;;;13.58;34.69
80644;BME280;70010;60.224;24.712;2023-05-14T04:35:10;102384.70;;;14.02;34.14
80644;BME280;70010;60.224;24.712;2023-05-14T04:37:36;102384.47;;;12.56;35.63
80644;BME280;70010;60.224;24.712;2023-05-14T04:40:01;102391.48;;;10.44;40.89
80644;BME280;70010;60.224;24.712;2023-05-14T04:42:26;102385.52;;;11.76;38.19
80644;BME280;70010;60.224;24.712;2023-05-14T04:44:52;102382.80;;;12.61;36.52
80644;BME280;70010;60.224;24.712;2023-05-14T04:47:17;102382.48;;;13.44;35.32
80644;BME280;70010;60.224;24.712;2023-05-14T04:49:42;102379.33;;;13.53;34.24
80644;BME280;70010;60.224;24.712;2023-05-14T04:52:08;102386.09;;;10.95;39.62
80644;BME280;70010;60.224;24.712;2023-05-14T04:54:33;102381.01;;;12.05;37.49
80644;BME280;70010;60.224;24.712;2023-05-14T04:56:58;102377.32;;;14.01;34.23
80644;BME280;70010;60.224;24.712;2023-05-14T04:59:23;102376.58;;;14.93;32.73
80644;BME280;70010;60.224;24.712;2023-05-14T05:01:48;102378.60;;;13.23;34.95
80644;BME280;70010;60.224;24.712;2023-05-14T05:04:14;102375.92;;;11.55;38.54
80644;BME280;70010;60.224;24.712;2023-05-14T05:06:39;102377.70;;;11.81;38.19
80644;BME280;70010;60.224;24.712;2023-05-14T05:09:04;102373.24;;;13.70;34.46
80644;BME280;70010;60.224;24.712;2023-05-14T05:11:29;102371.26;;;13.27;34.86
80644;BME280;70010;60.224;24.712;2023-05-14T05:13:54;102372.93;;;13.54;34.82
80644;BME280;70010;60.224;24.712;2023-05-14T05:16:20;102369.87;;;14.93;32.33
80644;BME280;70010;60.224;24.712;2023-05-14T05:18:45;102370.61;;;15.17;31.85
80644;BME280;70010;60.224;24.712;2023-05-14T05:21:11;102375.97;;;15.02;32.41
80644;BME280;70010;60.224;24.712;2023-05-14T05:23:36;102379.46;;;12.48;36.50
80644;BME280;70010;60.224;24.712;2023-05-14T05:26:02;102376.22;;;13.73;34.16
80644;BME280;70010;60.224;24.712;2023-05-14T05:28:28;102376.81;;;14.54;33.36
80644;BME280;70010;60.224;24.712;2023-05-14T05:30:53;102376.89;;;12.40;37.35
80644;BME280;70010;60.224;24.712;2023-05-14T05:33:19;102372.44;;;13.09;36.03
80644;BME280;70010;60.224;24.712;2023-05-14T05:35:44;102367.95;;;13.64;35.33
80644;BME280;70010;60.224;24.712;2023-05-14T05:38:10;102362.93;;;15.09;32.12
80644;BME280;70010;60.224;24.712;2023-05-14T05:40:35;102370.58;;;14.57;33.03
80644;BME280;70010;60.224;24.712;2023-05-14T05:43:00;102366.01;;;15.41;31.40
80644;BME280;70010;60.224;24.712;2023-05-14T05:45:26;102366.29;;;15.90;30.19
80644;BME280;70010;60.224;24.712;2023-05-14T05:47:51;102368.15;;;14.34;31.81
80644;BME280;70010;60.224;24.712;2023-05-14T05:50:16;102368.66;;;13.96;33.55
80644;BME280;70010;60.224;24.712;2023-05-14T05:52:42;102370.10;;;13.39;33.37
80644;BME280;70010;60.224;24.712;2023-05-14T05:55:08;102365.13;;;15.62;30.74
80644;BME280;70010;60.224;24.712;2023-05-14T05:57:33;102373.90;;;13.53;33.34
80644;BME280;70010;60.224;24.712;2023-05-14T05:59:58;102371.95;;;14.26;31.91
80644;BME280;70010;60.224;24.712;2023-05-14T06:02:24;102368.57;;;13.52;33.21
80644;BME280;70010;60.224;24.712;2023-05-14T06:04:50;102365.96;;;13.31;33.44
80644;BME280;70010;60.224;24.712;2023-05-14T06:07:15;102364.24;;;13.39;33.99
80644;BME280;70010;60.224;24.712;2023-05-14T06:09:40;102364.26;;;15.79;29.52
80644;BME280;70010;60.224;24.712;2023-05-14T06:12:06;102360.23;;;16.89;27.89
80644;BME280;70010;60.224;24.712;2023-05-14T06:14:31;102355.39;;;16.15;28.11
80644;BME280;70010;60.224;24.712;2023-05-14T06:16:56;102357.08;;;15.41;29.19
80644;BME280;70010;60.224;24.712;2023-05-14T06:19:22;102353.64;;;15.04;29.38
80644;BME280;70010;60.224;24.712;2023-05-14T06:21:47;102351.79;;;16.47;27.75
80644;BME280;70010;60.224;24.712;2023-05-14T06:24:12;102353.00;;;16.10;27.96
80644;BME280;70010;60.224;24.712;2023-05-14T06:26:37;102353.18;;;16.21;28.11
80644;BME280;70010;60.224;24.712;2023-05-14T06:29:02;102353.99;;;15.26;28.54
80644;BME280;70010;60.224;24.712;2023-05-14T06:31:28;102350.42;;;17.05;26.39
80644;BME280;70010;60.224;24.712;2023-05-14T06:33:54;102348.99;;;17.57;25.27
80644;BME280;70010;60.224;24.712;2023-05-14T06:36:20;102351.33;;;16.72;25.91
80644;BME280;70010;60.224;24.712;2023-05-14T06:38:45;102345.52;;;15.29;28.04
80644;BME280;70010;60.224;24.712;2023-05-14T06:41:11;102349.56;;;15.02;28.71
80644;BME280;70010;60.224;24.712;2023-05-14T06:43:36;102343.26;;;16.98;25.69
80644;BME280;70010;60.224;24.712;2023-05-14T06:46:01;102342.63;;;17.99;24.45
80644;BME280;70010;60.224;24.712;2023-05-14T06:48:27;102346.60;;;17.40;25.02
80644;BME280;70010;60.224;24.712;2023-05-14T06:50:52;102349.46;;;16.66;26.23
80644;BME280;70010;60.224;24.712;2023-05-14T06:53:17;102349.25;;;18.07;24.43
80644;BME280;70010;60.224;24.712;2023-05-14T06:55:43;102344.87;;;16.23;26.34
80644;BME280;70010;60.224;24.712;2023-05-14T06:58:08;102351.75;;;16.49;26.69
80644;BME280;70010;60.224;24.712;2023-05-14T07:00:34;102347.07;;;16.23;26.70
80644;BME280;70010;60.224;24.712;2023-05-14T07:02:59;102345.67;;;16.93;25.13
80644;BME280;70010;60.224;24.712;2023-05-14T07:05:24;102353.84;;;15.32;27.64
80644;BME280;70010;60.224;24.712;2023-05-14T07:07:50;102343.16;;;17.06;25.25
80644;BME280;70010;60.224;24.712;2023-05-14T07:10:15;102342.87;;;17.76;24.51
80644;BME280;70010;60.224;24.712;2023-05-14T07:12:41;102337.77;;;19.54;22.39
80644;BME280;70010;60.224;24.712;2023-05-14T07:15:08;102340.83;;;18.97;22.91
80644;BME280;70010;60.224;24.712;2023-05-14T07:17:32;102342.26;;;18.17;23.61
80644;BME280;70010;60.224;24.712;2023-05-14T07:19:58;102339.85;;;17.90;23.90
80644;BME280;70010;60.224;24.712;2023-05-14T07:22:23;102344.76;;;16.68;25.72
80644;BME280;70010;60.224;24.712;2023-05-14T07:24:48;102343.43;;;18.27;24.02
80644;BME280;70010;60.224;24.712;2023-05-14T07:27:13;102351.55;;;18.30;23.97
80644;BME280;70010;60.224;24.712;2023-05-14T07:29:39;102346.85;;;17.26;24.98
80644;BME280;70010;60.224;24.712;2023-05-14T07:32:05;102341.73;;;18.53;23.34
80644;BME280;70010;60.224;24.712;2023-05-14T07:34:30;102330.09;;;17.71;24.57
80644;BME280;70010;60.224;24.712;2023-05-14T07:36:56;102331.63;;;19.20;23.08
80644;BME280;70010;60.224;24.712;2023-05-14T07:39:21;102327.06;;;19.42;22.65
80644;BME280;70010;60.224;24.712;2023-05-14T07:41:46;102326.37;;;20.09;21.67
80644;BME280;70010;60.224;24.712;2023-05-14T07:44:12;102321.23;;;21.21;21.03
80644;BME280;70010;60.224;24.712;2023-05-14T07:46:38;102314.30;;;20.25;22.30
80644;BME280;70010;60.224;24.712;2023-05-14T07:49:03;102319.94;;;17.49;25.08
80644;BME280;70010;60.224;24.712;2023-05-14T07:51:29;102309.19;;;20.18;22.35
80644;BME280;70010;60.224;24.712;2023-05-14T07:53:54;102314.42;;;19.26;23.10
80644;BME280;70010;60.224;24.712;2023-05-14T07:56:20;102316.02;;;21.14;21.39
80644;BME280;70010;60.224;24.712;2023-05-14T07:58:45;102309.37;;;20.56;22.13
80644;BME280;70010;60.224;24.712;2023-05-14T08:01:10;102305.97;;;20.97;21.51
80644;BME280;70010;60.224;24.712;2023-05-14T08:03:35;102305.20;;;20.01;22.47
80644;BME280;70010;60.224;24.712;2023-05-14T08:06:01;102314.98;;;18.46;24.17
80644;BME280;70010;60.224;24.712;2023-05-14T08:08:26;102304.99;;;20.21;22.58
80644;BME280;70010;60.224;24.712;2023-05-14T08:10:51;102297.26;;;19.56;22.69
80644;BME280;70010;60.224;24.712;2023-05-14T08:13:17;102290.08;;;22.12;20.53
80644;BME280;70010;60.224;24.712;2023-05-14T08:15:42;102294.66;;;20.95;21.52
80644;BME280;70010;60.224;24.712;2023-05-14T08:18:07;102298.54;;;20.29;22.60
80644;BME280;70010;60.224;24.712;2023-05-14T08:20:33;102299.94;;;18.20;25.11
80644;BME280;70010;60.224;24.712;2023-05-14T08:22:58;102295.70;;;20.12;22.87
80644;BME280;70010;60.224;24.712;2023-05-14T08:25:23;102293.35;;;21.79;21.28
80644;BME280;70010;60.224;24.712;2023-05-14T08:27:49;102289.03;;;21.98;20.53
80644;BME280;70010;60.224;24.712;2023-05-14T08:30:14;102289.98;;;20.27;22.15
80644;BME280;70010;60.224;24.712;2023-05-14T08:32:40;102291.42;;;22.10;21.07
80644;BME280;70010;60.224;24.712;2023-05-14T08:35:06;102294.58;;;23.00;20.24
80644;BME280;70010;60.224;24.712;2023-05-14T08:37:30;102292.39;;;23.20;19.66
80644;BME280;70010;60.224;24.712;2023-05-14T08:39:56;102287.62;;;22.92;19.53
80644;BME280;70010;60.224;24.712;2023-05-14T08:42:23;102287.30;;;20.49;21.94
80644;BME280;70010;60.224;24.712;2023-05-14T08:44:48;102289.40;;;20.94;21.95
80644;BME280;70010;60.224;24.712;2023-05-14T08:47:15;102283.31;;;19.96;23.16
80644;BME280;70010;60.224;24.712;2023-05-14T08:49:40;102286.03;;;19.89;23.22
80644;BME280;70010;60.224;24.712;2023-05-14T08:52:03;102285.31;;;22.00;20.99
80644;BME280;70010;60.224;24.712;2023-05-14T08:54:29;102286.56;;;23.35;19.41
80644;BME280;70010;60.224;24.712;2023-05-14T08:56:54;102286.01;;;24.16;18.57
80644;BME280;70010;60.224;24.712;2023-05-14T08:59:19;102275.53;;;25.22;17.78
80644;BME280;70010;60.224;24.712;2023-05-14T09:01:47;102271.86;;;23.57;19.08
80644;BME280;70010;60.224;24.712;2023-05-14T09:04:10;102271.27;;;25.07;17.80
80644;BME280;70010;60.224;24.712;2023-05-14T09:06:36;102279.57;;;22.63;19.39
80644;BME280;70010;60.224;24.712;2023-05-14T09:09:02;102283.78;;;23.54;18.57
80644;BME280;70010;60.224;24.712;2023-05-14T09:11:27;102274.04;;;24.94;17.35
80644;BME280;70010;60.224;24.712;2023-05-14T09:13:52;102274.89;;;24.51;17.21
80644;BME280;70010;60.224;24.712;2023-05-14T09:16:18;102271.79;;;24.13;17.69
80644;BME280;70010;60.224;24.712;2023-05-14T09:18:44;102269.15;;;21.43;20.05
80644;BME280;70010;60.224;24.712;2023-05-14T09:21:08;102263.53;;;24.59;17.82
80644;BME280;70010;60.224;24.712;2023-05-14T09:23:33;102269.24;;;25.32;17.06
80644;BME280;70010;60.224;24.712;2023-05-14T09:26:03;102268.82;;;22.51;19.39
80644;BME280;70010;60.224;24.712;2023-05-14T09:28:24;102272.93;;;23.37;18.74
80644;BME280;70010;60.224;24.712;2023-05-14T09:30:50;102269.32;;;22.38;19.31
80644;BME280;70010;60.224;24.712;2023-05-14T09:33:25;102261.32;;;23.04;18.96
80644;BME280;70010;60.224;24.712;2023-05-14T09:35:40;102255.80;;;25.17;17.00
80644;BME280;70010;60.224;24.712;2023-05-14T09:38:05;102253.42;;;24.71;17.44
80644;BME280;70010;60.224;24.712;2023-05-14T09:40:31;102250.27;;;24.33;17.89
80644;BME280;70010;60.224;24.712;2023-05-14T09:42:56;102251.70;;;25.64;16.66
80644;BME280;70010;60.224;24.712;2023-05-14T09:45:21;102244.61;;;23.66;18.70
80644;BME280;70010;60.224;24.712;2023-05-14T09:47:48;102244.60;;;24.19;17.78
80644;BME280;70010;60.224;24.712;2023-05-14T09:50:12;102246.18;;;23.71;18.21
80644;BME280;70010;60.224;24.712;2023-05-14T09:52:38;102249.97;;;22.84;19.24
80644;BME280;70010;60.224;24.712;2023-05-14T09:55:05;102241.55;;;24.78;17.25
80644;BME280;70010;60.224;24.712;2023-05-14T09:57:30;102247.11;;;21.30;20.41
80644;BME280;70010;60.224;24.712;2023-05-14T09:59:55;102235.62;;;25.84;17.09
80644;BME280;70010;60.224;24.712;2023-05-14T10:02:23;102236.11;;;25.37;17.37
80644;BME280;70010;60.224;24.712;2023-05-14T10:04:47;102233.27;;;24.87;17.36
80644;BME280;70010;60.224;24.712;2023-05-14T10:07:12;102234.88;;;21.96;20.02
80644;BME280;70010;60.224;24.712;2023-05-14T10:09:38;102232.37;;;24.27;18.49
80644;BME280;70010;60.224;24.712;2023-05-14T10:12:03;102229.44;;;26.93;15.65
80644;BME280;70010;60.224;24.712;2023-05-14T10:14:32;102231.40;;;24.11;17.96
80644;BME280;70010;60.224;24.712;2023-05-14T10:16:55;102226.78;;;24.91;17.07
80644;BME280;70010;60.224;24.712;2023-05-14T10:19:20;102230.89;;;26.88;15.61
80644;BME280;70010;60.224;24.712;2023-05-14T10:21:46;102231.64;;;22.72;18.99
80644;BME280;70010;60.224;24.712;2023-05-14T10:24:10;102232.77;;;23.08;18.41
80644;BME280;70010;60.224;24.712;2023-05-14T10:26:37;102228.35;;;23.25;18.29
80644;BME280;70010;60.224;24.712;2023-05-14T10:29:00;102221.83;;;24.90;17.03
80644;BME280;70010;60.224;24.712;2023-05-14T10:33:51;102207.94;;;27.01;15.40
80644;BME280;70010;60.224;24.712;2023-05-14T10:36:17;102212.31;;;26.64;15.36
80644;BME280;70010;60.224;24.712;2023-05-14T10:38:43;102213.10;;;22.19;19.15
80644;BME280;70010;60.224;24.712;2023-05-14T10:41:10;102203.57;;;26.23;15.77
80644;BME280;70010;60.224;24.712;2023-05-14T10:43:37;102203.53;;;28.60;14.09
80644;BME280;70010;60.224;24.712;2023-05-14T10:46:00;102206.17;;;27.28;14.72
80644;BME280;70010;60.224;24.712;2023-05-14T10:48:25;102205.24;;;27.10;14.82
80644;BME280;70010;60.224;24.712;2023-05-14T10:50:51;102198.40;;;27.59;14.43
80644;BME280;70010;60.224;24.712;2023-05-14T10:53:16;102200.89;;;27.60;14.64
80644;BME280;70010;60.224;24.712;2023-05-14T10:55:41;102188.30;;;28.55;14.25
80644;BME280;70010;60.224;24.712;2023-05-14T10:58:06;102185.90;;;30.90;12.98
80644;BME280;70010;60.224;24.712;2023-05-14T11:00:33;102187.47;;;28.11;14.32
80644;BME280;70010;60.224;24.712;2023-05-14T11:02:56;102186.20;;;25.57;16.24
80644;BME280;70010;60.224;24.712;2023-05-14T11:05:21;102183.05;;;28.28;14.42
80644;BME280;70010;60.224;24.712;2023-05-14T11:07:48;102180.84;;;29.31;13.71
80644;BME280;70010;60.224;24.712;2023-05-14T11:10:13;102184.32;;;28.43;14.10
80644;BME280;70010;60.224;24.712;2023-05-14T11:12:38;102181.43;;;28.63;13.89
80644;BME280;70010;60.224;24.712;2023-05-14T11:15:04;102185.75;;;26.60;15.44
80644;BME280;70010;60.224;24.712;2023-05-14T11:17:28;102179.69;;;25.75;15.99
80644;BME280;70010;60.224;24.712;2023-05-14T11:19:53;102175.16;;;25.45;16.82
80644;BME280;70010;60.224;24.712;2023-05-14T11:22:19;102168.68;;;27.57;15.37
80644;BME280;70010;60.224;24.712;2023-05-14T11:24:44;102173.12;;;26.14;16.50
80644;BME280;70010;60.224;24.712;2023-05-14T11:27:10;102164.78;;;28.09;14.48
80644;BME280;70010;60.224;24.712;2023-05-14T11:29:35;102160.65;;;30.46;13.30
80644;BME280;70010;60.224;24.712;2023-05-14T11:32:01;102155.99;;;30.62;13.02
80644;BME280;70010;60.224;24.712;2023-05-14T11:34:26;102157.79;;;27.71;14.80
80644;BME280;70010;60.224;24.712;2023-05-14T11:36:51;102159.43;;;27.99;14.90
80644;BME280;70010;60.224;24.712;2023-05-14T11:39:17;102158.02;;;27.55;14.98
80644;BME280;70010;60.224;24.712;2023-05-14T11:41:43;102153.91;;;28.44;14.75
80644;BME280;70010;60.224;24.712;2023-05-14T11:44:09;102155.61;;;30.66;13.10
80644;BME280;70010;60.224;24.712;2023-05-14T11:46:33;102149.68;;;30.04;13.41
80644;BME280;70010;60.224;24.712;2023-05-14T11:48:58;102151.81;;;27.80;15.50
80644;BME280;70010;60.224;24.712;2023-05-14T11:51:23;102145.64;;;30.45;13.44
80644;BME280;70010;60.224;24.712;2023-05-14T11:53:49;102151.11;;;30.98;13.08
80644;BME280;70010;60.224;24.712;2023-05-14T11:56:14;102148.37;;;28.04;14.70
80644;BME280;70010;60.224;24.712;2023-05-14T11:58:39;102146.83;;;30.35;13.29
80644;BME280;70010;60.224;24.712;2023-05-14T12:01:05;102140.17;;;29.06;14.41
80644;BME280;70010;60.224;24.712;2023-05-14T12:03:30;102146.31;;;28.57;14.53
80644;BME280;70010;60.224;24.712;2023-05-14T12:05:56;102133.87;;;31.89;12.53
80644;BME280;70010;60.224;24.712;2023-05-14T12:08:22;102138.29;;;27.71;14.94
80644;BME280;70010;60.224;24.712;2023-05-14T12:10:47;102142.07;;;27.41;15.56
80644;BME280;70010;60.224;24.712;2023-05-14T12:13:14;102139.62;;;25.32;17.31
80644;BME280;70010;60.224;24.712;2023-05-14T12:15:38;102133.78;;;30.43;13.77
80644;BME280;70010;60.224;24.712;2023-05-14T12:18:08;102139.25;;;27.64;15.44
80644;BME280;70010;60.224;24.712;2023-05-14T12:20:28;102130.22;;;30.77;13.21
80644;BME280;70010;60.224;24.712;2023-05-14T12:22:53;102133.67;;;27.09;15.43
80644;BME280;70010;60.224;24.712;2023-05-14T12:25:18;102131.76;;;31.08;13.10
80644;BME280;70010;60.224;24.712;2023-05-14T12:27:44;102127.30;;;30.51;13.36
80644;BME280;70010;60.224;24.712;2023-05-14T12:30:11;102121.93;;;28.93;14.42
80644;BME280;70010;60.224;24.712;2023-05-14T12:32:34;102131.33;;;31.20;12.97
80644;BME280;70010;60.224;24.712;2023-05-14T12:35:00;102121.81;;;28.95;14.04